Time;durP1;ratioP1;P1;durP2;ratioP2;P2;SDS_P1;SDS_P2;PMS_P1;PMS_P2;Temp;Humidity;BMP_temperature;BMP_pressure;BME280_temperature;BME280_humidity;BME280_pressure;Samples;Min_cycle;Max_cycle;Signal;HPM_P1;HPM_P2
2022/05/28 00:01:56;;;;;;;0.67;0.67;;;7.00;99.90;6.20;99255;;;;570067;246;24159;-69
2022/05/28 00:04:24;;;;;;;1.17;0.70;;;7.00;99.90;6.30;99257;;;;570175;246;24091;-72
2022/05/28 00:06:52;;;;;;;3.77;0.80;;;7.10;99.90;6.30;99250;;;;562197;252;24104;-72
2022/05/28 00:09:24;;;;;;;1.00;1.00;;;7.20;99.90;6.40;99241;;;;561642;252;24080;-72
2022/05/28 00:11:48;;;;;;;1.87;1.00;;;7.10;99.90;6.40;99243;;;;561341;252;24134;-73
2022/05/28 00:14:17;;;;;;;2.57;0.43;;;7.20;99.90;6.40;99236;;;;570189;252;24145;-77
2022/05/28 00:16:46;;;;;;;3.90;0.60;;;7.20;99.90;6.40;99242;;;;561597;252;24160;-81
2022/05/28 00:19:13;;;;;;;3.30;0.93;;;7.20;99.90;6.40;99243;;;;570469;252;24083;-78
2022/05/28 00:21:42;;;;;;;1.23;0.60;;;7.20;99.90;6.40;99239;;;;561921;252;24086;-72
2022/05/28 00:24:12;;;;;;;2.23;0.70;;;7.10;99.90;6.30;99229;;;;561736;252;24101;-72
2022/05/28 00:26:38;;;;;;;2.37;1.30;;;7.20;99.90;6.30;99231;;;;561430;252;24098;-71
2022/05/28 00:29:06;;;;;;;2.33;0.67;;;7.10;99.90;6.30;99232;;;;569771;252;24121;-71
2022/05/28 00:31:33;;;;;;;1.53;0.50;;;7.10;99.90;6.30;99230;;;;560457;252;24069;-78
2022/05/28 00:34:02;;;;;;;2.87;0.80;;;7.00;99.90;6.30;99224;;;;561312;252;24101;-78
2022/05/28 00:36:30;;;;;;;1.33;0.60;;;7.00;99.90;6.20;99224;;;;561764;252;24126;-75
2022/05/28 00:38:59;;;;;;;2.27;0.60;;;7.00;99.90;6.20;99226;;;;561000;252;24087;-72
2022/05/28 00:41:28;;;;;;;2.70;0.77;;;6.90;99.90;6.10;99215;;;;570202;246;24089;-81
2022/05/28 00:43:56;;;;;;;4.73;0.90;;;6.90;99.90;6.10;99229;;;;571697;251;24081;-80
2022/05/28 00:46:26;;;;;;;3.23;1.10;;;6.90;99.90;6.10;99213;;;;571548;245;24148;-79
2022/05/28 00:48:54;;;;;;;2.93;0.93;;;6.90;99.90;6.10;99212;;;;562485;252;24081;-77
2022/05/28 00:51:22;;;;;;;0.57;0.57;;;6.90;99.90;6.00;99215;;;;562157;252;24120;-79
2022/05/28 00:53:50;;;;;;;1.40;0.53;;;6.90;99.90;6.00;99205;;;;562457;252;24135;-78
2022/05/28 00:56:18;;;;;;;2.07;1.00;;;6.90;99.90;6.00;99206;;;;562374;252;24071;-79
2022/05/28 00:58:46;;;;;;;5.40;0.93;;;6.80;99.90;6.00;99211;;;;561528;252;24084;-71
2022/05/28 01:01:13;;;;;;;3.30;1.13;;;6.80;99.90;6.00;99204;;;;561587;252;24088;-79
2022/05/28 01:04:08;;;;;;;6.33;1.10;;;6.80;99.90;6.00;99207;;;;562774;252;24127;-76
2022/05/28 01:07:00;;;;;;;1.33;0.83;;;6.80;99.90;5.90;99206;;;;561758;252;24097;-82
2022/05/28 01:09:47;;;;;;;1.87;1.10;;;6.70;99.90;5.90;99207;;;;560883;252;24131;-79
2022/05/28 01:12:26;;;;;;;4.47;1.20;;;6.70;99.90;5.90;99197;;;;562424;252;24094;-82
2022/05/28 01:15:09;;;;;;;1.23;1.10;;;6.70;99.90;5.90;99199;;;;562812;252;24113;-82
2022/05/28 01:17:37;;;;;;;1.90;0.97;;;6.70;99.90;5.80;99197;;;;562130;252;24092;-83
2022/05/28 01:20:12;;;;;;;2.80;0.90;;;6.60;99.90;5.80;99202;;;;561646;252;24101;-80
2022/05/28 01:23:06;;;;;;;2.93;0.93;;;6.60;99.90;5.80;99185;;;;561739;252;24093;-81
2022/05/28 01:26:07;;;;;;;3.60;0.77;;;6.60;99.90;5.80;99200;;;;562378;252;24093;-81
2022/05/28 01:28:35;;;;;;;0.83;0.77;;;6.60;99.90;5.80;99194;;;;561808;252;24063;-81
2022/05/28 01:31:03;;;;;;;0.90;0.90;;;6.60;99.90;5.80;99202;;;;561235;252;24126;-80
2022/05/28 01:33:31;;;;;;;4.90;0.90;;;6.60;99.90;5.80;99193;;;;561860;252;24127;-74
2022/05/28 01:35:59;;;;;;;2.53;1.33;;;6.60;99.90;5.70;99200;;;;561658;252;24074;-71
2022/05/28 01:38:30;;;;;;;5.17;0.93;;;6.60;99.90;5.70;99194;;;;561347;252;24103;-78
2022/05/28 01:40:56;;;;;;;3.67;1.00;;;6.50;99.90;5.70;99194;;;;562153;252;24122;-79
2022/05/28 01:43:24;;;;;;;1.00;0.90;;;6.50;99.90;5.70;99193;;;;562114;252;24092;-73
2022/05/28 01:45:52;;;;;;;3.70;1.20;;;6.50;99.90;5.70;99190;;;;561568;252;24069;-71
2022/05/28 01:48:22;;;;;;;4.33;1.07;;;6.50;99.90;5.70;99188;;;;561214;252;24080;-72
2022/05/28 01:50:49;;;;;;;2.83;1.30;;;6.50;99.90;5.70;99194;;;;561389;252;24073;-72
2022/05/28 01:54:07;;;;;;;6.60;1.50;;;6.50;99.90;5.70;99192;;;;569669;250;24176;-71
2022/05/28 01:55:48;;;;;;;1.60;1.00;;;6.50;99.90;5.70;99193;;;;561201;252;24135;-72
2022/05/28 01:58:13;;;;;;;9.93;1.20;;;6.50;99.90;5.80;99199;;;;562092;252;24082;-73
2022/05/28 02:00:41;;;;;;;3.03;0.93;;;6.60;99.90;5.90;99198;;;;570463;252;24133;-73
2022/05/28 02:03:09;;;;;;;3.57;1.00;;;6.70;99.90;6.00;99189;;;;570489;252;25138;-73
2022/05/28 02:05:37;;;;;;;4.23;1.20;;;6.80;99.90;6.20;99196;;;;561836;252;24098;-72
2022/05/28 02:08:05;;;;;;;0.97;0.80;;;6.90;99.90;6.30;99200;;;;570476;252;24081;-78
2022/05/28 02:10:33;;;;;;;1.80;0.90;;;7.10;99.90;6.40;99196;;;;562292;251;24079;-75
2022/05/28 02:13:16;;;;;;;1.30;0.97;;;7.20;99.90;6.50;99191;;;;562940;252;24085;-75
2022/05/28 02:15:49;;;;;;;5.03;1.40;;;7.20;99.90;6.60;99186;;;;562115;252;24141;-83
2022/05/28 02:18:44;;;;;;;4.40;1.30;;;7.30;99.90;6.60;99184;;;;562894;252;24107;-84
2022/05/28 02:21:20;;;;;;;1.70;0.80;;;7.40;99.90;6.60;99175;;;;562346;252;24125;-81
2022/05/28 02:23:54;;;;;;;1.40;0.80;;;7.30;99.90;6.50;99178;;;;560462;252;24276;-74
2022/05/28 02:26:28;;;;;;;3.70;0.90;;;7.30;99.90;6.40;99169;;;;561551;252;24169;-72
2022/05/28 02:28:56;;;;;;;2.67;1.75;;;7.30;99.90;6.40;99183;;;;557495;252;35177;-84
2022/05/28 02:31:27;;;;;;;4.83;1.20;;;7.20;99.90;6.30;99174;;;;562813;252;24069;-81
2022/05/28 02:33:58;;;;;;;1.50;0.83;;;7.10;99.90;6.30;99175;;;;562657;252;24074;-82
2022/05/28 02:36:22;;;;;;;0.93;0.87;;;7.10;99.90;6.30;99168;;;;562196;252;24101;-71
2022/05/28 02:38:50;;;;;;;1.33;1.00;;;7.10;99.90;6.30;99164;;;;569988;251;24142;-75
2022/05/28 02:41:18;;;;;;;3.80;0.90;;;7.10;99.90;6.30;99173;;;;560874;252;24083;-77
2022/05/28 02:43:46;;;;;;;1.70;0.90;;;7.10;99.90;6.40;99162;;;;570598;252;24140;-71
2022/05/28 02:46:17;;;;;;;1.03;0.87;;;7.20;99.90;6.40;99165;;;;561032;252;24105;-71
2022/05/28 02:48:43;;;;;;;0.80;0.80;;;7.10;99.90;6.30;99157;;;;561193;252;24119;-72
2022/05/28 02:51:16;;;;;;;0.73;0.73;;;7.10;99.90;6.30;99163;;;;560460;252;24185;-71
2022/05/28 02:53:44;;;;;;;1.47;0.70;;;7.10;99.90;6.30;99158;;;;561187;251;24111;-82
2022/05/28 02:56:13;;;;;;;2.13;0.80;;;7.10;99.90;6.30;99167;;;;569876;252;24118;-73
2022/05/28 02:58:41;;;;;;;0.73;0.53;;;7.10;99.90;6.40;99158;;;;570260;252;24079;-73
2022/05/28 03:01:16;;;;;;;1.37;0.77;;;7.20;99.90;6.40;99155;;;;561356;252;24078;-79
2022/05/28 03:03:44;;;;;;;5.40;0.80;;;7.20;99.90;6.50;99159;;;;561958;252;24079;-81
2022/05/28 03:06:12;;;;;;;3.37;0.70;;;7.30;99.90;6.50;99165;;;;563100;252;24100;-82
2022/05/28 03:08:40;;;;;;;0.53;0.50;;;7.30;99.90;6.60;99182;;;;562168;252;24185;-82
2022/05/28 03:11:11;;;;;;;0.70;0.70;;;7.40;99.90;6.60;99177;;;;561891;252;24113;-82
2022/05/28 03:13:36;;;;;;;1.23;0.70;;;7.40;99.90;6.60;99167;;;;570859;252;24125;-82
2022/05/28 03:16:08;;;;;;;0.70;0.70;;;7.40;99.90;6.70;99170;;;;562407;252;24059;-83
2022/05/28 03:18:32;;;;;;;0.63;0.60;;;7.50;99.90;6.70;99165;;;;562445;252;24152;-82
2022/05/28 03:20:59;;;;;;;1.17;0.60;;;7.60;99.90;6.80;99157;;;;562500;252;24074;-81
2022/05/28 03:23:28;;;;;;;1.00;0.37;;;7.60;99.90;6.80;99168;;;;561754;252;24092;-81
2022/05/28 03:25:55;;;;;;;1.00;0.60;;;7.60;99.90;6.90;99159;;;;571025;246;24070;-78
2022/05/28 03:28:23;;;;;;;1.30;0.47;;;7.70;99.90;6.90;99156;;;;562644;252;24120;-77
2022/05/28 03:30:51;;;;;;;0.70;0.70;;;7.70;99.90;6.90;99148;;;;562403;252;24084;-75
2022/05/28 03:33:19;;;;;;;2.53;0.60;;;7.70;99.90;6.90;99146;;;;571152;252;24085;-73
2022/05/28 03:35:50;;;;;;;0.47;0.40;;;7.70;99.90;6.90;99140;;;;571093;246;24053;-76
2022/05/28 03:38:15;;;;;;;0.50;0.50;;;7.70;99.90;6.90;99142;;;;562361;252;24072;-72
2022/05/28 03:40:43;;;;;;;1.93;0.50;;;7.70;99.90;6.80;99146;;;;571262;252;24132;-75
2022/05/28 03:43:11;;;;;;;0.80;0.60;;;7.70;99.90;6.90;99150;;;;571256;252;24087;-77
2022/05/28 03:45:39;;;;;;;0.67;0.67;;;7.60;99.90;7.00;99140;;;;571278;252;24092;-73
2022/05/28 03:48:11;;;;;;;2.93;0.87;;;7.70;99.90;7.10;99135;;;;571153;245;24069;-79
2022/05/28 03:50:35;;;;;;;1.43;0.60;;;7.80;99.90;7.30;99140;;;;559669;252;24115;-73
2022/05/28 03:53:03;;;;;;;2.90;0.73;;;8.00;99.90;7.70;99143;;;;570889;252;24118;-79
2022/05/28 03:55:31;;;;;;;1.80;0.73;;;8.30;99.90;8.50;99138;;;;562602;252;24096;-82
2022/05/28 03:57:59;;;;;;;6.97;0.83;;;9.10;99.90;9.60;99146;;;;561580;252;24085;-81
2022/05/28 04:00:27;;;;;;;1.20;0.57;;;10.20;99.90;10.80;99147;;;;561219;252;24079;-82
2022/05/28 04:02:55;;;;;;;2.23;0.70;;;11.30;99.90;12.60;99156;;;;567399;252;24050;-82
2022/05/28 04:05:23;;;;;;;1.97;0.60;;;12.90;99.90;14.00;99164;;;;567648;249;24132;-77
2022/05/28 04:07:50;;;;;;;4.20;0.73;;;14.50;99.90;15.40;99166;;;;567587;252;24074;-79
2022/05/28 04:10:18;;;;;;;2.83;0.70;;;16.00;99.90;15.70;99168;;;;561473;252;24098;-81
2022/05/28 04:12:46;;;;;;;1.87;0.63;;;16.60;99.90;15.90;99159;;;;561662;252;24086;-83
2022/05/28 04:15:15;;;;;;;1.07;0.60;;;17.60;99.90;16.70;99159;;;;561950;252;24076;-76
2022/05/28 04:17:43;;;;;;;1.80;0.70;;;17.60;99.90;17.50;99150;;;;568349;252;24086;-78
2022/05/28 04:20:11;;;;;;;1.20;0.63;;;18.40;99.90;17.70;99156;;;;568492;252;24065;-74
2022/05/28 04:22:39;;;;;;;0.63;0.63;;;18.80;99.90;17.50;99150;;;;562662;252;24066;-75
2022/05/28 04:25:08;;;;;;;1.77;0.60;;;19.20;99.90;18.20;99152;;;;568097;252;24116;-72
2022/05/28 04:27:37;;;;;;;1.73;0.60;;;19.20;99.90;19.00;99153;;;;562335;252;24121;-75
2022/05/28 04:30:05;;;;;;;0.80;0.80;;;20.00;98.60;20.00;99155;;;;562780;252;24074;-74
2022/05/28 04:32:33;;;;;;;0.60;0.50;;;20.90;95.20;20.60;99143;;;;562298;252;23122;-71
2022/05/28 04:35:01;;;;;;;0.83;0.50;;;21.70;91.90;21.50;99153;;;;568100;252;24093;-73
2022/05/28 04:37:29;;;;;;;1.07;0.63;;;22.50;86.50;22.60;99152;;;;568590;252;24061;-73
2022/05/28 04:39:57;;;;;;;0.60;0.57;;;23.50;81.50;22.90;99155;;;;568521;252;24046;-77
2022/05/28 04:42:25;;;;;;;2.20;0.50;;;24.10;73.50;23.00;99154;;;;568478;252;24205;-82
2022/05/28 04:44:53;;;;;;;0.40;0.40;;;24.30;70.70;22.70;99155;;;;562520;252;24101;-73
2022/05/28 04:47:21;;;;;;;0.50;0.50;;;24.20;67.40;22.60;99161;;;;568000;252;24123;-72
2022/05/28 04:49:49;;;;;;;0.80;0.60;;;22.80;66.90;20.90;99160;;;;567570;252;24116;-72
2022/05/28 04:52:17;;;;;;;1.53;0.60;;;22.80;66.40;19.50;99154;;;;567558;252;24057;-72
2022/05/28 04:54:45;;;;;;;1.03;0.70;;;21.40;69.10;18.60;99160;;;;567087;252;24071;-71
2022/05/28 04:57:13;;;;;;;1.20;0.50;;;20.20;72.50;18.80;99156;;;;566545;252;24093;-72
2022/05/28 04:59:41;;;;;;;1.40;0.60;;;20.00;74.60;18.80;99163;;;;566980;252;24070;-72
2022/05/28 05:02:09;;;;;;;0.40;0.40;;;19.80;74.60;18.80;99162;;;;567136;252;24058;-72
2022/05/28 05:04:37;;;;;;;0.83;0.70;;;19.80;75.70;18.60;99162;;;;562558;250;24062;-74
2022/05/28 05:07:05;;;;;;;0.80;0.43;;;19.60;75.90;18.00;99158;;;;568288;252;24074;-81
2022/05/28 05:09:33;;;;;;;0.83;0.33;;;19.10;77.00;17.30;99164;;;;562266;252;24062;-72
2022/05/28 05:12:01;;;;;;;0.40;0.40;;;18.40;78.20;16.50;99167;;;;567304;252;24099;-79
2022/05/28 05:14:28;;;;;;;0.68;0.40;;;17.60;80.00;15.50;99172;;;;557237;252;35067;-73
2022/05/28 05:16:56;;;;;;;0.50;0.50;;;16.60;82.30;14.50;99170;;;;567107;252;24069;-73
2022/05/28 05:19:24;;;;;;;0.33;0.33;;;15.70;85.50;13.80;99170;;;;567046;252;24094;-74
2022/05/28 05:21:56;;;;;;;1.20;0.40;;;14.20;90.90;13.30;99178;;;;566802;252;24067;-73
2022/05/28 05:24:24;;;;;;;0.33;0.33;;;14.20;90.90;13.00;99177;;;;561433;252;24081;-72
2022/05/28 05:26:52;;;;;;;0.40;0.40;;;13.50;94.30;12.80;99171;;;;569719;252;24092;-71
2022/05/28 05:29:21;;;;;;;0.90;0.43;;;13.20;96.00;12.50;99176;;;;567868;251;24081;-71
2022/05/28 05:31:49;;;;;;;0.93;0.50;;;13.10;95.80;12.80;99178;;;;567943;252;24081;-71
2022/05/28 05:34:17;;;;;;;1.03;0.40;;;13.20;97.90;13.20;99177;;;;567629;252;24160;-71
2022/05/28 05:36:45;;;;;;;1.27;0.47;;;13.70;98.10;13.20;99179;;;;561761;250;24100;-72
2022/05/28 05:39:13;;;;;;;0.73;0.63;;;13.80;98.50;13.10;99180;;;;567207;252;24119;-71
2022/05/28 05:41:41;;;;;;;1.47;1.37;;;13.70;99.00;13.10;99180;;;;561611;252;24112;-72
2022/05/28 05:44:08;;;;;;;1.10;0.67;;;13.70;99.70;13.20;99179;;;;561490;252;24147;-72
2022/05/28 05:46:36;;;;;;;0.50;0.50;;;13.80;99.90;13.40;99179;;;;561601;252;24090;-73
2022/05/28 05:49:04;;;;;;;3.20;0.70;;;14.00;99.90;13.70;99183;;;;561203;252;24148;-72
2022/05/28 05:51:33;;;;;;;0.20;0.20;;;15.60;99.80;15.40;99172;;;;566905;252;24092;-70
2022/05/28 05:54:01;;;;;;;1.30;0.43;;;15.50;99.80;17.10;99169;;;;569754;252;24165;-71
2022/05/28 05:56:29;;;;;;;0.73;0.30;;;17.10;96.10;19.80;99172;;;;561269;252;24070;-72
2022/05/28 05:58:57;;;;;;;3.10;0.30;;;19.70;90.80;21.90;99179;;;;566991;252;24070;-84
2022/05/28 06:01:26;;;;;;;0.70;0.57;;;22.00;78.40;23.50;99190;;;;567948;252;24127;-75
2022/05/28 06:03:53;;;;;;;1.20;0.50;;;23.70;68.60;23.90;99187;;;;567999;252;24084;-73
2022/05/28 06:06:20;;;;;;;1.53;0.50;;;24.60;63.10;23.60;99184;;;;561830;252;24109;-73
2022/05/28 06:08:48;;;;;;;0.30;0.30;;;24.50;61.80;23.10;99194;;;;561601;252;24054;-74
2022/05/28 06:11:17;;;;;;;0.97;0.57;;;23.50;60.80;22.40;99187;;;;570212;252;24135;-72
2022/05/28 06:13:45;;;;;;;0.63;0.30;;;23.50;60.80;21.30;99182;;;;561820;252;24153;-72
2022/05/28 06:16:13;;;;;;;1.23;0.43;;;22.50;62.40;20.70;99184;;;;567333;252;23088;-73
2022/05/28 06:18:42;;;;;;;0.93;0.80;;;21.70;64.60;20.20;99187;;;;567264;252;24052;-75
2022/05/28 06:21:10;;;;;;;1.60;0.80;;;21.10;66.50;20.20;99194;;;;561642;252;24058;-75
2022/05/28 06:23:41;;;;;;;0.43;0.43;;;21.00;66.90;19.90;99192;;;;561517;250;24149;-74
2022/05/28 06:26:06;;;;;;;0.50;0.50;;;20.70;67.10;19.20;99184;;;;561472;250;23122;-75
2022/05/28 06:28:35;;;;;;;0.77;0.50;;;19.40;69.10;18.50;99184;;;;561653;250;24093;-73
2022/05/28 06:31:05;;;;;;;1.17;0.80;;;19.40;69.10;18.30;99184;;;;561725;250;24118;-74
2022/05/28 06:33:33;;;;;;;0.50;0.50;;;19.10;70.30;18.40;99185;;;;561331;252;24066;-71
2022/05/28 06:36:01;;;;;;;1.33;0.60;;;19.00;71.10;18.10;99185;;;;561263;252;24201;-72
2022/05/28 06:38:32;;;;;;;1.27;0.80;;;18.80;71.90;18.20;99176;;;;569776;252;24122;-73
2022/05/28 06:40:57;;;;;;;0.60;0.60;;;18.70;72.90;19.40;99176;;;;567556;252;24131;-72
2022/05/28 06:43:25;;;;;;;1.90;0.50;;;20.40;69.00;20.10;99190;;;;562148;250;24085;-74
2022/05/28 06:45:54;;;;;;;0.63;0.63;;;20.70;68.50;20.20;99182;;;;570437;252;24074;-70
2022/05/28 06:48:22;;;;;;;0.50;0.50;;;20.70;67.60;20.00;99179;;;;567278;252;24096;-73
2022/05/28 06:51:02;;;;;;;0.47;0.45;;;20.70;66.70;19.70;99184;;;;562225;252;35028;-73
2022/05/28 06:53:33;;;;;;;0.57;0.50;;;20.50;66.30;19.10;99183;;;;561295;252;24093;-71
2022/05/28 06:56:04;;;;;;;0.43;0.40;;;20.00;66.30;19.20;99179;;;;561776;251;23100;-74
2022/05/28 06:58:28;;;;;;;0.40;0.30;;;19.90;68.00;19.30;99189;;;;569735;252;24165;-73
2022/05/28 07:00:59;;;;;;;1.20;0.57;;;20.00;68.10;19.60;99189;;;;561281;252;24139;-76
2022/05/28 07:03:28;;;;;;;1.60;0.70;;;20.20;68.60;19.30;99188;;;;561941;250;24108;-72
2022/05/28 07:05:52;;;;;;;1.90;0.90;;;20.00;68.30;18.60;99184;;;;561385;252;24073;-72
2022/05/28 07:08:20;;;;;;;0.70;0.67;;;19.50;69.30;18.20;99189;;;;570529;252;24145;-75
2022/05/28 07:10:51;;;;;;;1.37;0.80;;;19.00;71.10;18.00;99193;;;;562351;250;24080;-72
2022/05/28 07:13:19;;;;;;;1.60;0.67;;;18.70;72.40;17.70;99197;;;;561641;252;24161;-73
2022/05/28 07:15:47;;;;;;;2.00;0.80;;;18.40;73.50;17.50;99197;;;;561923;252;24109;-74
2022/05/28 07:18:18;;;;;;;1.53;0.80;;;18.10;74.90;17.50;99184;;;;561971;252;24060;-75
2022/05/28 07:20:43;;;;;;;0.67;0.50;;;18.10;76.00;17.60;99187;;;;561512;252;24070;-73
2022/05/28 07:23:17;;;;;;;1.77;0.80;;;18.20;76.00;17.60;99180;;;;567023;252;24071;-74
2022/05/28 07:25:45;;;;;;;1.80;0.80;;;18.20;76.00;17.30;99179;;;;561390;252;24077;-74
2022/05/28 07:28:26;;;;;;;1.23;0.60;;;18.00;76.60;17.50;99190;;;;561640;252;24075;-73
2022/05/28 07:30:56;;;;;;;0.77;0.77;;;18.00;76.60;17.60;99184;;;;561945;252;24197;-79
2022/05/28 07:33:28;;;;;;;2.47;1.13;;;18.10;76.40;17.30;99172;;;;569690;252;24235;-74
2022/05/28 07:35:52;;;;;;;1.40;0.60;;;17.90;76.40;17.50;99179;;;;560428;252;24112;-72
2022/05/28 07:38:23;;;;;;;1.80;0.70;;;18.00;77.60;18.10;99171;;;;561430;250;24133;-75
2022/05/28 07:40:48;;;;;;;1.07;0.70;;;18.50;77.00;19.20;99181;;;;569548;252;24163;-74
2022/05/28 07:43:19;;;;;;;1.63;0.83;;;19.40;74.50;20.50;99186;;;;561272;252;24129;-75
2022/05/28 07:45:44;;;;;;;2.43;1.10;;;20.70;72.40;22.00;99178;;;;566538;252;24152;-76
2022/05/28 07:48:12;;;;;;;0.80;0.63;;;22.10;68.30;22.90;99189;;;;569781;252;24106;-75
2022/05/28 07:50:40;;;;;;;1.67;1.23;;;23.30;65.30;23.30;99186;;;;560957;252;24092;-76
2022/05/28 07:53:10;;;;;;;2.20;0.90;;;23.90;61.70;22.90;99183;;;;562276;252;24110;-76
2022/05/28 07:55:35;;;;;;;1.03;0.80;;;23.80;61.50;22.60;99178;;;;562081;252;24080;-76
2022/05/28 07:58:06;;;;;;;0.97;0.80;;;23.50;61.20;22.40;99177;;;;562051;252;24110;-76
2022/05/28 08:00:34;;;;;;;0.83;0.83;;;23.20;60.80;22.80;99179;;;;561529;252;24121;-77
2022/05/28 08:03:02;;;;;;;1.20;0.80;;;23.40;60.00;23.80;99188;;;;561623;252;24071;-76
2022/05/28 08:05:30;;;;;;;2.80;0.77;;;24.00;58.50;24.00;99181;;;;567037;252;24120;-76
2022/05/28 08:07:58;;;;;;;1.10;0.93;;;24.60;56.60;23.80;99173;;;;561445;252;24102;-77
2022/05/28 08:10:26;;;;;;;2.30;0.90;;;24.50;56.50;23.20;99185;;;;566811;252;24089;-76
2022/05/28 08:12:54;;;;;;;1.60;0.80;;;24.10;56.80;23.00;99186;;;;566602;252;24123;-76
2022/05/28 08:15:22;;;;;;;1.07;0.97;;;23.90;56.90;22.60;99177;;;;566533;252;24085;-75
2022/05/28 08:17:50;;;;;;;1.47;1.00;;;23.50;57.30;23.10;99178;;;;566684;252;23105;-76
2022/05/28 08:20:17;;;;;;;1.07;0.90;;;23.50;58.20;25.50;99175;;;;560317;252;24126;-76
2022/05/28 08:25:31;;;;;;;2.93;0.80;;;27.00;51.90;25.30;99180;;;;569592;250;23158;-76
2022/05/28 08:27:59;;;;;;;1.47;0.90;;;26.50;51.20;26.50;99182;;;;566538;252;23068;-77
2022/05/28 08:30:27;;;;;;;1.27;0.70;;;27.00;52.10;27.90;99182;;;;566284;252;23137;-76
2022/05/28 08:32:55;;;;;;;1.47;0.90;;;28.20;50.50;29.80;99185;;;;566425;252;23128;-76
2022/05/28 08:35:24;;;;;;;2.20;0.90;;;30.00;48.00;31.40;99189;;;;566425;252;23149;-77
2022/05/28 08:37:51;;;;;;;1.90;1.20;;;31.80;45.90;33.10;99195;;;;566707;252;23068;-76
2022/05/28 08:40:19;;;;;;;1.45;1.10;;;33.50;43.40;34.40;99193;;;;566739;252;23115;-76
2022/05/28 08:42:47;;;;;;;2.75;1.10;;;36.20;39.10;35.60;99196;;;;566800;252;23081;-77
2022/05/28 08:45:15;;;;;;;1.75;1.00;;;36.10;39.00;34.00;99195;;;;566711;252;23136;-76
2022/05/28 08:47:43;;;;;;;1.58;1.00;;;35.70;37.90;32.40;99199;;;;561295;252;23149;-76
2022/05/28 08:50:11;;;;;;;3.35;1.08;;;34.50;38.60;31.20;99188;;;;560917;252;23136;-76
2022/05/28 08:52:48;;;;;;;1.20;0.98;;;31.40;41.40;29.60;99204;;;;566374;252;23182;-77
2022/05/28 08:55:16;;;;;;;1.92;1.48;;;31.30;41.30;28.20;99200;;;;561081;252;23102;-76
2022/05/28 08:57:47;;;;;;;2.17;1.15;;;29.80;43.60;26.70;99198;;;;560459;252;24105;-76
2022/05/28 09:00:18;;;;;;;3.33;1.23;;;28.20;45.20;25.10;99196;;;;560903;252;23091;-77
2022/05/28 09:02:55;;;;;;;3.00;1.00;;;26.50;47.00;25.50;99198;;;;556961;250;24170;-77
2022/05/28 09:05:28;;;;;;;2.10;0.97;;;26.10;49.30;27.10;99197;;;;561926;252;23128;-76
2022/05/28 09:07:59;;;;;;;3.07;0.83;;;27.40;48.20;26.70;99205;;;;562120;250;23112;-78
2022/05/28 09:10:27;;;;;;;3.57;0.90;;;27.50;46.10;28.00;99201;;;;561509;250;23146;-76
2022/05/28 09:13:20;;;;;;;2.07;1.10;;;30.20;45.60;30.10;99198;;;;561895;252;23114;-74
2022/05/28 09:15:48;;;;;;;1.00;0.90;;;30.10;45.50;32.30;99215;;;;561066;252;23079;-77
2022/05/28 09:18:16;;;;;;;2.40;0.80;;;32.60;41.70;33.50;99208;;;;567198;252;24082;-79
2022/05/28 09:20:43;;;;;;;1.37;1.10;;;34.00;40.10;34.00;99200;;;;561754;252;23088;-78
2022/05/28 09:23:15;;;;;;;1.55;1.10;;;35.00;37.80;31.80;99203;;;;561544;250;23101;-76
2022/05/28 09:25:45;;;;;;;1.87;1.00;;;31.80;39.60;29.50;99210;;;;561317;252;23145;-72
2022/05/28 09:28:29;;;;;;;1.73;1.08;;;31.70;39.50;27.40;99202;;;;556815;252;35202;-75
2022/05/28 09:31:06;;;;;;;2.92;1.17;;;29.60;42.20;26.70;99205;;;;560911;252;23107;-77
2022/05/28 09:33:46;;;;;;;1.75;0.80;;;28.10;45.30;28.20;99200;;;;561692;252;23090;-76
2022/05/28 09:36:26;;;;;;;1.25;0.55;;;30.50;43.50;30.40;99199;;;;557624;252;23096;-74
2022/05/28 09:39:31;;;;;;;1.25;0.68;;;30.50;43.50;32.40;99214;;;;561322;252;23091;-75
2022/05/28 09:42:14;;;;;;;2.25;1.50;;;32.80;40.90;34.70;99207;;;;556119;252;35055;-75
2022/05/28 09:44:46;;;;;;;1.10;0.88;;;35.40;38.10;34.70;99205;;;;568866;252;23110;-77
2022/05/28 09:47:13;;;;;;;2.83;0.98;;;35.90;37.00;33.80;99216;;;;555490;252;35092;-80
2022/05/28 09:49:50;;;;;;;1.55;1.00;;;35.50;36.70;34.00;99212;;;;560755;252;23121;-81
2022/05/28 09:52:15;;;;;;;1.17;0.85;;;35.30;37.20;34.80;99209;;;;560325;252;23157;-80
2022/05/28 09:54:42;;;;;;;2.05;1.05;;;35.90;36.50;34.50;99218;;;;560481;252;23099;-83
2022/05/28 09:57:10;;;;;;;1.67;1.20;;;36.00;35.80;32.60;99221;;;;561017;252;23144;-83
2022/05/28 09:59:46;;;;;;;1.10;0.75;;;34.70;36.30;30.20;99217;;;;570327;252;23130;-82
2022/05/28 10:02:27;;;;;;;2.25;0.80;;;32.60;38.30;28.30;99202;;;;561946;252;23102;-76
2022/05/28 10:05:11;;;;;;;2.42;0.90;;;30.30;40.50;27.60;99206;;;;561220;252;23095;-81
2022/05/28 10:07:41;;;;;;;1.03;0.90;;;29.00;43.40;27.90;99213;;;;561753;252;24149;-81
2022/05/28 10:10:11;;;;;;;1.30;0.93;;;28.70;44.20;27.90;99214;;;;562177;252;24134;-80
2022/05/28 10:12:39;;;;;;;2.00;0.93;;;28.70;44.20;27.50;99215;;;;559788;252;23095;-82
2022/05/28 10:15:17;;;;;;;3.23;0.93;;;27.70;45.40;26.60;99216;;;;568018;251;24209;-81
2022/05/28 10:17:44;;;;;;;3.23;1.10;;;27.60;45.40;25.40;99215;;;;562919;252;24098;-81
2022/05/28 10:20:16;;;;;;;2.00;1.00;;;26.50;47.20;24.10;99223;;;;561831;252;23086;-81
2022/05/28 10:22:46;;;;;;;1.20;1.03;;;25.20;49.30;22.80;99236;;;;562552;252;24106;-81
2022/05/28 10:25:26;;;;;;;0.80;0.80;;;23.90;52.20;21.40;99239;;;;562162;252;24078;-82
2022/05/28 10:27:54;;;;;;;0.53;0.50;;;22.50;55.90;20.00;99230;;;;561860;252;24066;-81
2022/05/28 10:30:40;;;;;;;0.63;0.60;;;21.20;60.80;19.60;99233;;;;567914;252;24118;-82
2022/05/28 10:33:14;;;;;;;1.10;0.60;;;20.00;61.80;19.40;99232;;;;561038;252;24073;-82
2022/05/28 10:35:46;;;;;;;0.40;0.40;;;19.90;61.70;19.40;99229;;;;562229;252;24095;-82
2022/05/28 10:38:22;;;;;;;0.37;0.30;;;19.90;61.60;19.40;99226;;;;570256;252;24173;-79
2022/05/28 10:41:01;;;;;;;4.43;0.83;;;19.80;62.10;19.50;99220;;;;560749;252;24111;-81
2022/05/28 10:43:39;;;;;;;1.15;0.52;;;19.90;62.70;19.80;99216;;;;556544;252;35063;-81
2022/05/28 10:46:15;;;;;;;1.90;0.60;;;20.20;63.00;19.90;99211;;;;570033;252;24085;-80
2022/05/28 10:49:13;;;;;;;0.50;0.50;;;20.30;63.00;20.20;99211;;;;561866;252;24141;-76
2022/05/28 10:51:51;;;;;;;2.03;0.60;;;21.00;62.20;20.50;99208;;;;562211;252;24076;-79
2022/05/28 10:54:49;;;;;;;1.37;1.10;;;21.00;62.10;20.50;99217;;;;553596;252;23098;-77
2022/05/28 10:57:20;;;;;;;0.40;0.40;;;21.00;61.00;20.00;99219;;;;561659;252;24109;-82
2022/05/28 11:00:11;;;;;;;3.80;1.50;;;20.70;60.60;19.80;99226;;;;562215;252;24075;-79
2022/05/28 11:03:01;;;;;;;3.10;0.80;;;20.40;62.30;19.60;99221;;;;562071;252;24066;-78
2022/05/28 11:05:50;;;;;;;0.80;0.80;;;20.20;64.70;19.10;99229;;;;563748;252;24093;-76
2022/05/28 11:08:43;;;;;;;0.70;0.70;;;19.80;66.50;18.60;99229;;;;561928;252;24068;-75
2022/05/28 11:11:35;;;;;;;0.77;0.60;;;19.30;67.20;18.20;99232;;;;561375;252;24119;-73
2022/05/28 11:14:12;;;;;;;0.30;0.30;;;18.90;68.60;18.00;99207;;;;561444;249;24161;-75
2022/05/28 11:17:07;;;;;;;1.07;0.50;;;18.60;67.50;17.90;99211;;;;561147;252;24066;-74
2022/05/28 11:19:43;;;;;;;0.70;0.30;;;18.40;68.70;17.90;99222;;;;561808;252;24126;-80
2022/05/28 11:22:32;;;;;;;1.27;0.60;;;18.40;68.00;18.10;99221;;;;561273;252;25336;-72
2022/05/28 11:25:05;;;;;;;1.70;0.60;;;18.50;68.40;18.20;99215;;;;561347;252;24123;-73
2022/05/28 11:27:46;;;;;;;0.30;0.30;;;18.60;67.60;18.20;99224;;;;561745;252;24165;-73
2022/05/28 11:30:20;;;;;;;0.47;0.47;;;18.80;67.80;18.20;99226;;;;562086;252;24117;-73
2022/05/28 11:32:53;;;;;;;0.83;0.53;;;18.70;68.00;17.90;99222;;;;562143;252;24058;-72
2022/05/28 11:35:40;;;;;;;1.43;0.50;;;18.60;68.40;17.90;99230;;;;561886;252;24110;-74
2022/05/28 11:38:22;;;;;;;0.20;0.20;;;18.50;69.40;18.10;99220;;;;562421;252;24066;-81
2022/05/28 11:41:14;;;;;;;0.40;0.40;;;18.70;69.40;18.30;99214;;;;562475;252;24084;-73
2022/05/28 11:44:07;;;;;;;1.07;0.50;;;18.70;69.40;18.60;99219;;;;560663;252;24122;-73